sensor_id;sensor_type;location;lat;lon;timestamp;P1;durP1;ratioP1;P2;durP2;ratioP2
51190;SDS011;37253;48.736;9.294;2023-08-21T00:00:30;4.60;;;4.20;;
51190;SDS011;37253;48.736;9.294;2023-08-21T00:02:30;4.38;;;3.97;;
51190;SDS011;37253;48.736;9.294;2023-08-21T00:04:30;4.85;;;4.45;;
51190;SDS011;37253;48.736;9.294;2023-08-21T00:06:31;4.72;;;4.32;;
51190;SDS011;37253;48.736;9.294;2023-08-21T00:08:31;5.45;;;3.97;;
51190;SDS011;37253;48.736;9.294;2023-08-21T00:10:32;4.13;;;3.83;;
51190;SDS011;37253;48.736;9.294;2023-08-21T00:12:33;4.53;;;4.13;;
51190;SDS011;37253;48.736;9.294;2023-08-21T00:14:33;4.60;;;4.20;;
51190;SDS011;37253;48.736;9.294;2023-08-21T00:16:33;4.55;;;4.25;;
51190;SDS011;37253;48.736;9.294;2023-08-21T00:18:34;5.18;;;4.68;;
51190;SDS011;37253;48.736;9.294;2023-08-21T00:20:34;4.53;;;4.22;;
51190;SDS011;37253;48.736;9.294;2023-08-21T00:22:35;4.90;;;4.50;;
51190;SDS011;37253;48.736;9.294;2023-08-21T00:24:36;4.38;;;4.07;;
51190;SDS011;37253;48.736;9.294;2023-08-21T00:26:36;4.78;;;4.40;;
51190;SDS011;37253;48.736;9.294;2023-08-21T00:28:37;4.60;;;4.20;;
51190;SDS011;37253;48.736;9.294;2023-08-21T00:30:37;4.00;;;3.70;;
51190;SDS011;37253;48.736;9.294;2023-08-21T00:32:37;4.50;;;4.20;;
51190;SDS011;37253;48.736;9.294;2023-08-21T00:34:38;4.63;;;4.22;;
51190;SDS011;37253;48.736;9.294;2023-08-21T00:36:38;4.55;;;4.22;;
51190;SDS011;37253;48.736;9.294;2023-08-21T00:38:38;5.03;;;4.63;;
51190;SDS011;37253;48.736;9.294;2023-08-21T00:40:40;4.15;;;3.85;;
51190;SDS011;37253;48.736;9.294;2023-08-21T00:42:40;3.83;;;3.53;;
51190;SDS011;37253;48.736;9.294;2023-08-21T00:44:40;4.63;;;4.22;;
51190;SDS011;37253;48.736;9.294;2023-08-21T00:46:41;4.30;;;3.90;;
51190;SDS011;37253;48.736;9.294;2023-08-21T00:48:41;4.82;;;4.43;;
51190;SDS011;37253;48.736;9.294;2023-08-21T00:50:42;4.57;;;4.20;;
51190;SDS011;37253;48.736;9.294;2023-08-21T00:52:44;4.55;;;4.15;;
51190;SDS011;37253;48.736;9.294;2023-08-21T00:54:45;4.18;;;3.88;;
51190;SDS011;37253;48.736;9.294;2023-08-21T00:56:45;4.47;;;3.83;;
51190;SDS011;37253;48.736;9.294;2023-08-21T00:58:46;4.60;;;4.20;;
51190;SDS011;37253;48.736;9.294;2023-08-21T01:00:46;4.53;;;4.13;;
51190;SDS011;37253;48.736;9.294;2023-08-21T01:02:50;4.35;;;3.90;;
51190;SDS011;37253;48.736;9.294;2023-08-21T01:04:50;4.43;;;4.10;;
51190;SDS011;37253;48.736;9.294;2023-08-21T01:06:50;4.63;;;4.22;;
51190;SDS011;37253;48.736;9.294;2023-08-21T01:08:59;4.60;;;4.20;;
51190;SDS011;37253;48.736;9.294;2023-08-21T01:15:52;4.43;;;4.13;;
51190;SDS011;37253;48.736;9.294;2023-08-21T01:17:54;4.15;;;3.85;;
51190;SDS011;37253;48.736;9.294;2023-08-21T01:19:54;4.65;;;4.15;;
51190;SDS011;37253;48.736;9.294;2023-08-21T01:21:55;4.68;;;4.30;;
51190;SDS011;37253;48.736;9.294;2023-08-21T01:23:56;4.78;;;4.38;;
51190;SDS011;37253;48.736;9.294;2023-08-21T01:25:56;4.68;;;4.28;;
51190;SDS011;37253;48.736;9.294;2023-08-21T01:27:56;4.75;;;4.45;;
51190;SDS011;37253;48.736;9.294;2023-08-21T01:29:57;4.35;;;4.00;;
51190;SDS011;37253;48.736;9.294;2023-08-21T01:32:09;4.57;;;4.18;;
51190;SDS011;37253;48.736;9.294;2023-08-21T01:34:14;4.15;;;3.85;;
51190;SDS011;37253;48.736;9.294;2023-08-21T01:36:15;4.40;;;4.00;;
51190;SDS011;37253;48.736;9.294;2023-08-21T01:38:16;4.20;;;3.75;;
51190;SDS011;37253;48.736;9.294;2023-08-21T01:40:20;4.40;;;4.00;;
51190;SDS011;37253;48.736;9.294;2023-08-21T01:42:21;4.60;;;4.20;;
51190;SDS011;37253;48.736;9.294;2023-08-21T01:44:22;4.55;;;4.15;;
51190;SDS011;37253;48.736;9.294;2023-08-21T01:46:22;4.70;;;4.30;;
51190;SDS011;37253;48.736;9.294;2023-08-21T01:48:22;4.43;;;4.03;;
51190;SDS011;37253;48.736;9.294;2023-08-21T01:50:23;4.13;;;3.78;;
51190;SDS011;37253;48.736;9.294;2023-08-21T01:52:23;5.03;;;4.53;;
51190;SDS011;37253;48.736;9.294;2023-08-21T01:54:23;4.30;;;4.00;;
51190;SDS011;37253;48.736;9.294;2023-08-21T01:56:24;4.30;;;4.00;;
51190;SDS011;37253;48.736;9.294;2023-08-21T01:58:24;4.30;;;3.90;;
51190;SDS011;37253;48.736;9.294;2023-08-21T02:00:24;4.63;;;4.22;;
51190;SDS011;37253;48.736;9.294;2023-08-21T02:02:24;4.57;;;4.28;;
51190;SDS011;37253;48.736;9.294;2023-08-21T02:04:25;4.38;;;3.97;;
51190;SDS011;37253;48.736;9.294;2023-08-21T02:06:25;5.13;;;4.13;;
51190;SDS011;37253;48.736;9.294;2023-08-21T02:08:32;4.20;;;3.80;;
51190;SDS011;37253;48.736;9.294;2023-08-21T02:10:32;4.07;;;3.78;;
51190;SDS011;37253;48.736;9.294;2023-08-21T02:12:33;6.25;;;4.00;;
51190;SDS011;37253;48.736;9.294;2023-08-21T02:14:33;4.38;;;4.07;;
51190;SDS011;37253;48.736;9.294;2023-08-21T02:16:33;3.97;;;3.67;;
51190;SDS011;37253;48.736;9.294;2023-08-21T02:18:33;4.28;;;3.97;;
51190;SDS011;37253;48.736;9.294;2023-08-21T02:20:34;5.50;;;3.78;;
51190;SDS011;37253;48.736;9.294;2023-08-21T02:22:34;4.47;;;4.07;;
51190;SDS011;37253;48.736;9.294;2023-08-21T02:24:34;4.25;;;3.92;;
51190;SDS011;37253;48.736;9.294;2023-08-21T02:26:35;3.83;;;3.58;;
51190;SDS011;37253;48.736;9.294;2023-08-21T02:28:35;4.32;;;3.92;;
51190;SDS011;37253;48.736;9.294;2023-08-21T02:30:35;4.35;;;4.03;;
51190;SDS011;37253;48.736;9.294;2023-08-21T02:32:36;3.90;;;3.60;;
51190;SDS011;37253;48.736;9.294;2023-08-21T02:34:38;5.50;;;3.80;;
51190;SDS011;37253;48.736;9.294;2023-08-21T02:36:39;4.25;;;3.92;;
51190;SDS011;37253;48.736;9.294;2023-08-21T02:38:39;4.40;;;4.00;;
51190;SDS011;37253;48.736;9.294;2023-08-21T02:40:40;4.10;;;3.80;;
51190;SDS011;37253;48.736;9.294;2023-08-21T02:42:40;4.10;;;3.80;;
51190;SDS011;37253;48.736;9.294;2023-08-21T02:44:40;4.72;;;4.30;;
51190;SDS011;37253;48.736;9.294;2023-08-21T02:46:41;4.35;;;4.05;;
51190;SDS011;37253;48.736;9.294;2023-08-21T02:48:41;4.13;;;3.83;;
51190;SDS011;37253;48.736;9.294;2023-08-21T02:50:41;4.55;;;4.00;;
51190;SDS011;37253;48.736;9.294;2023-08-21T02:52:42;4.25;;;3.88;;
51190;SDS011;37253;48.736;9.294;2023-08-21T02:54:42;4.47;;;4.05;;
51190;SDS011;37253;48.736;9.294;2023-08-21T02:56:42;4.30;;;3.90;;
51190;SDS011;37253;48.736;9.294;2023-08-21T02:58:42;4.40;;;4.00;;
51190;SDS011;37253;48.736;9.294;2023-08-21T03:00:43;5.68;;;4.03;;
51190;SDS011;37253;48.736;9.294;2023-08-21T03:02:43;4.60;;;4.20;;
51190;SDS011;37253;48.736;9.294;2023-08-21T03:04:44;6.38;;;3.90;;
51190;SDS011;37253;48.736;9.294;2023-08-21T03:06:44;4.90;;;4.40;;
51190;SDS011;37253;48.736;9.294;2023-08-21T03:08:44;5.30;;;4.05;;
51190;SDS011;37253;48.736;9.294;2023-08-21T03:10:45;4.30;;;3.95;;
51190;SDS011;37253;48.736;9.294;2023-08-21T03:12:45;4.88;;;4.40;;
51190;SDS011;37253;48.736;9.294;2023-08-21T03:14:45;4.43;;;3.90;;
51190;SDS011;37253;48.736;9.294;2023-08-21T03:16:46;4.40;;;4.10;;
51190;SDS011;37253;48.736;9.294;2023-08-21T03:18:56;4.18;;;3.85;;
51190;SDS011;37253;48.736;9.294;2023-08-21T03:20:58;6.60;;;4.85;;
51190;SDS011;37253;48.736;9.294;2023-08-21T03:22:58;4.20;;;3.90;;
51190;SDS011;37253;48.736;9.294;2023-08-21T03:24:58;4.45;;;4.05;;
51190;SDS011;37253;48.736;9.294;2023-08-21T03:26:59;5.55;;;4.35;;
51190;SDS011;37253;48.736;9.294;2023-08-21T03:28:59;4.32;;;3.90;;
51190;SDS011;37253;48.736;9.294;2023-08-21T03:30:59;4.63;;;4.22;;
51190;SDS011;37253;48.736;9.294;2023-08-21T03:33:00;4.47;;;4.07;;
51190;SDS011;37253;48.736;9.294;2023-08-21T03:35:00;4.18;;;3.80;;
51190;SDS011;37253;48.736;9.294;2023-08-21T03:37:01;4.60;;;4.20;;
51190;SDS011;37253;48.736;9.294;2023-08-21T03:39:01;5.45;;;4.40;;
51190;SDS011;37253;48.736;9.294;2023-08-21T03:41:02;4.38;;;3.97;;
51190;SDS011;37253;48.736;9.294;2023-08-21T03:43:02;4.70;;;4.30;;
51190;SDS011;37253;48.736;9.294;2023-08-21T03:45:03;4.93;;;4.25;;
51190;SDS011;37253;48.736;9.294;2023-08-21T03:47:06;4.05;;;3.75;;
51190;SDS011;37253;48.736;9.294;2023-08-21T03:49:06;5.28;;;4.40;;
51190;SDS011;37253;48.736;9.294;2023-08-21T03:51:07;5.00;;;4.43;;
51190;SDS011;37253;48.736;9.294;2023-08-21T03:53:07;4.97;;;4.53;;
51190;SDS011;37253;48.736;9.294;2023-08-21T03:55:07;4.40;;;4.00;;
51190;SDS011;37253;48.736;9.294;2023-08-21T03:57:08;5.72;;;4.40;;
51190;SDS011;37253;48.736;9.294;2023-08-21T03:59:08;4.75;;;3.95;;
51190;SDS011;37253;48.736;9.294;2023-08-21T04:01:08;5.82;;;4.25;;
51190;SDS011;37253;48.736;9.294;2023-08-21T04:03:09;5.07;;;4.45;;
51190;SDS011;37253;48.736;9.294;2023-08-21T04:05:09;4.95;;;4.10;;
51190;SDS011;37253;48.736;9.294;2023-08-21T04:07:11;5.07;;;4.43;;
51190;SDS011;37253;48.736;9.294;2023-08-21T04:09:12;4.82;;;4.30;;
51190;SDS011;37253;48.736;9.294;2023-08-21T04:11:12;5.63;;;4.65;;
51190;SDS011;37253;48.736;9.294;2023-08-21T04:13:12;4.40;;;4.00;;
51190;SDS011;37253;48.736;9.294;2023-08-21T04:15:13;4.72;;;4.32;;
51190;SDS011;37253;48.736;9.294;2023-08-21T04:17:13;4.93;;;4.22;;
51190;SDS011;37253;48.736;9.294;2023-08-21T04:19:13;4.50;;;4.05;;
51190;SDS011;37253;48.736;9.294;2023-08-21T04:21:14;4.93;;;4.40;;
51190;SDS011;37253;48.736;9.294;2023-08-21T04:23:14;4.60;;;4.20;;
51190;SDS011;37253;48.736;9.294;2023-08-21T04:25:14;4.47;;;3.97;;
51190;SDS011;37253;48.736;9.294;2023-08-21T04:27:15;4.57;;;4.18;;
51190;SDS011;37253;48.736;9.294;2023-08-21T04:29:15;5.55;;;4.75;;
51190;SDS011;37253;48.736;9.294;2023-08-21T04:31:16;5.38;;;4.50;;
51190;SDS011;37253;48.736;9.294;2023-08-21T04:33:16;4.72;;;4.35;;
51190;SDS011;37253;48.736;9.294;2023-08-21T04:35:16;5.07;;;4.30;;
51190;SDS011;37253;48.736;9.294;2023-08-21T04:37:16;7.57;;;4.75;;
51190;SDS011;37253;48.736;9.294;2023-08-21T04:39:17;4.90;;;4.50;;
51190;SDS011;37253;48.736;9.294;2023-08-21T04:41:17;4.68;;;3.90;;
51190;SDS011;37253;48.736;9.294;2023-08-21T04:43:17;4.32;;;3.92;;
51190;SDS011;37253;48.736;9.294;2023-08-21T04:45:18;4.72;;;4.00;;
51190;SDS011;37253;48.736;9.294;2023-08-21T04:47:27;4.40;;;4.00;;
51190;SDS011;37253;48.736;9.294;2023-08-21T04:49:27;4.55;;;4.20;;
51190;SDS011;37253;48.736;9.294;2023-08-21T04:51:27;6.35;;;4.47;;
51190;SDS011;37253;48.736;9.294;2023-08-21T04:53:28;4.82;;;4.38;;
51190;SDS011;37253;48.736;9.294;2023-08-21T04:55:29;5.10;;;4.38;;
51190;SDS011;37253;48.736;9.294;2023-08-21T04:57:29;4.75;;;4.22;;
51190;SDS011;37253;48.736;9.294;2023-08-21T04:59:29;5.15;;;4.75;;
51190;SDS011;37253;48.736;9.294;2023-08-21T05:01:30;4.60;;;4.20;;
51190;SDS011;37253;48.736;9.294;2023-08-21T05:03:30;4.60;;;4.20;;
51190;SDS011;37253;48.736;9.294;2023-08-21T05:05:30;7.85;;;4.07;;
51190;SDS011;37253;48.736;9.294;2023-08-21T05:07:31;4.90;;;4.40;;
51190;SDS011;37253;48.736;9.294;2023-08-21T05:09:31;5.32;;;4.25;;
51190;SDS011;37253;48.736;9.294;2023-08-21T05:11:32;5.72;;;4.57;;
51190;SDS011;37253;48.736;9.294;2023-08-21T05:13:32;4.88;;;3.88;;
51190;SDS011;37253;48.736;9.294;2023-08-21T05:15:32;5.90;;;4.75;;
51190;SDS011;37253;48.736;9.294;2023-08-21T05:17:33;4.80;;;4.30;;
51190;SDS011;37253;48.736;9.294;2023-08-21T05:19:33;5.00;;;4.60;;
51190;SDS011;37253;48.736;9.294;2023-08-21T05:21:33;6.22;;;4.50;;
51190;SDS011;37253;48.736;9.294;2023-08-21T05:23:34;5.47;;;4.70;;
51190;SDS011;37253;48.736;9.294;2023-08-21T05:25:34;5.35;;;4.43;;
51190;SDS011;37253;48.736;9.294;2023-08-21T05:27:34;5.47;;;4.50;;
51190;SDS011;37253;48.736;9.294;2023-08-21T05:29:35;6.20;;;4.68;;
51190;SDS011;37253;48.736;9.294;2023-08-21T05:31:35;4.60;;;4.10;;
51190;SDS011;37253;48.736;9.294;2023-08-21T05:33:36;5.60;;;4.50;;
51190;SDS011;37253;48.736;9.294;2023-08-21T05:35:36;8.30;;;4.68;;
51190;SDS011;37253;48.736;9.294;2023-08-21T05:37:36;6.95;;;4.95;;
51190;SDS011;37253;48.736;9.294;2023-08-21T05:39:37;5.95;;;5.00;;
51190;SDS011;37253;48.736;9.294;2023-08-21T05:41:37;7.00;;;4.65;;
51190;SDS011;37253;48.736;9.294;2023-08-21T05:43:37;5.22;;;4.72;;
51190;SDS011;37253;48.736;9.294;2023-08-21T05:45:39;5.95;;;4.88;;
51190;SDS011;37253;48.736;9.294;2023-08-21T05:47:39;6.30;;;4.25;;
51190;SDS011;37253;48.736;9.294;2023-08-21T05:49:40;6.90;;;4.80;;
51190;SDS011;37253;48.736;9.294;2023-08-21T05:51:40;5.07;;;4.57;;
51190;SDS011;37253;48.736;9.294;2023-08-21T05:53:40;10.18;;;5.65;;
51190;SDS011;37253;48.736;9.294;2023-08-21T05:55:41;6.80;;;5.53;;
51190;SDS011;37253;48.736;9.294;2023-08-21T05:57:41;11.27;;;5.65;;
51190;SDS011;37253;48.736;9.294;2023-08-21T05:59:45;8.10;;;6.13;;
51190;SDS011;37253;48.736;9.294;2023-08-21T06:01:46;9.43;;;6.43;;
51190;SDS011;37253;48.736;9.294;2023-08-21T06:03:46;9.93;;;6.70;;
51190;SDS011;37253;48.736;9.294;2023-08-21T06:05:47;12.38;;;6.93;;
51190;SDS011;37253;48.736;9.294;2023-08-21T06:07:47;11.93;;;6.30;;
51190;SDS011;37253;48.736;9.294;2023-08-21T06:09:47;10.13;;;7.00;;
51190;SDS011;37253;48.736;9.294;2023-08-21T06:11:48;12.73;;;7.10;;
51190;SDS011;37253;48.736;9.294;2023-08-21T06:13:48;9.88;;;6.70;;
51190;SDS011;37253;48.736;9.294;2023-08-21T06:15:48;9.57;;;6.80;;
51190;SDS011;37253;48.736;9.294;2023-08-21T06:17:49;9.80;;;7.78;;
51190;SDS011;37253;48.736;9.294;2023-08-21T06:19:49;10.50;;;7.45;;
51190;SDS011;37253;48.736;9.294;2023-08-21T06:21:49;12.32;;;7.75;;
51190;SDS011;37253;48.736;9.294;2023-08-21T06:23:50;9.82;;;7.72;;
51190;SDS011;37253;48.736;9.294;2023-08-21T06:25:50;13.07;;;8.30;;
51190;SDS011;37253;48.736;9.294;2023-08-21T06:27:51;10.07;;;7.22;;
51190;SDS011;37253;48.736;9.294;2023-08-21T06:29:51;9.77;;;7.40;;
51190;SDS011;37253;48.736;9.294;2023-08-21T06:31:51;13.65;;;7.20;;
51190;SDS011;37253;48.736;9.294;2023-08-21T06:33:52;9.88;;;6.82;;
51190;SDS011;37253;48.736;9.294;2023-08-21T06:35:52;8.95;;;6.70;;
51190;SDS011;37253;48.736;9.294;2023-08-21T06:37:52;9.60;;;6.40;;
51190;SDS011;37253;48.736;9.294;2023-08-21T06:39:54;10.27;;;6.20;;
51190;SDS011;37253;48.736;9.294;2023-08-21T06:41:54;8.30;;;5.97;;
51190;SDS011;37253;48.736;9.294;2023-08-21T06:43:55;9.15;;;6.35;;
51190;SDS011;37253;48.736;9.294;2023-08-21T06:45:55;7.47;;;6.20;;
51190;SDS011;37253;48.736;9.294;2023-08-21T06:47:56;6.53;;;5.93;;
51190;SDS011;37253;48.736;9.294;2023-08-21T06:49:56;6.95;;;5.80;;
51190;SDS011;37253;48.736;9.294;2023-08-21T06:51:56;6.43;;;5.72;;
51190;SDS011;37253;48.736;9.294;2023-08-21T06:53:57;7.72;;;5.68;;
51190;SDS011;37253;48.736;9.294;2023-08-21T06:55:57;9.38;;;5.90;;
51190;SDS011;37253;48.736;9.294;2023-08-21T06:57:57;8.85;;;6.20;;
51190;SDS011;37253;48.736;9.294;2023-08-21T06:59:58;6.47;;;5.82;;
51190;SDS011;37253;48.736;9.294;2023-08-21T07:01:58;7.47;;;5.55;;
51190;SDS011;37253;48.736;9.294;2023-08-21T07:03:58;6.82;;;5.68;;
51190;SDS011;37253;48.736;9.294;2023-08-21T07:05:59;8.23;;;5.93;;
51190;SDS011;37253;48.736;9.294;2023-08-21T07:08:00;11.55;;;5.95;;
51190;SDS011;37253;48.736;9.294;2023-08-21T07:10:00;6.25;;;5.63;;
51190;SDS011;37253;48.736;9.294;2023-08-21T07:12:01;8.63;;;5.30;;
51190;SDS011;37253;48.736;9.294;2023-08-21T07:14:01;7.53;;;5.13;;
51190;SDS011;37253;48.736;9.294;2023-08-21T07:16:02;6.00;;;5.32;;
51190;SDS011;37253;48.736;9.294;2023-08-21T07:18:03;5.72;;;5.22;;
51190;SDS011;37253;48.736;9.294;2023-08-21T07:20:03;6.22;;;5.18;;
51190;SDS011;37253;48.736;9.294;2023-08-21T07:22:04;8.93;;;5.45;;
51190;SDS011;37253;48.736;9.294;2023-08-21T07:24:05;11.07;;;6.00;;
51190;SDS011;37253;48.736;9.294;2023-08-21T07:26:05;13.50;;;6.32;;
51190;SDS011;37253;48.736;9.294;2023-08-21T07:28:07;10.75;;;6.75;;
51190;SDS011;37253;48.736;9.294;2023-08-21T07:30:07;10.32;;;7.10;;
51190;SDS011;37253;48.736;9.294;2023-08-21T07:32:08;14.55;;;6.55;;
51190;SDS011;37253;48.736;9.294;2023-08-21T07:34:08;9.95;;;7.55;;
51190;SDS011;37253;48.736;9.294;2023-08-21T07:36:08;9.13;;;7.18;;
51190;SDS011;37253;48.736;9.294;2023-08-21T07:38:09;7.38;;;6.22;;
51190;SDS011;37253;48.736;9.294;2023-08-21T07:40:09;9.25;;;6.68;;
51190;SDS011;37253;48.736;9.294;2023-08-21T07:42:13;9.85;;;7.18;;
51190;SDS011;37253;48.736;9.294;2023-08-21T07:44:13;9.02;;;7.13;;
51190;SDS011;37253;48.736;9.294;2023-08-21T07:46:13;12.35;;;6.60;;
51190;SDS011;37253;48.736;9.294;2023-08-21T07:48:16;11.50;;;6.88;;
51190;SDS011;37253;48.736;9.294;2023-08-21T07:50:16;10.57;;;6.75;;
51190;SDS011;37253;48.736;9.294;2023-08-21T07:52:17;12.05;;;7.40;;
51190;SDS011;37253;48.736;9.294;2023-08-21T07:54:17;14.68;;;6.90;;
51190;SDS011;37253;48.736;9.294;2023-08-21T07:56:18;11.73;;;7.05;;
51190;SDS011;37253;48.736;9.294;2023-08-21T07:58:18;10.50;;;7.32;;
51190;SDS011;37253;48.736;9.294;2023-08-21T08:00:19;8.63;;;6.32;;
51190;SDS011;37253;48.736;9.294;2023-08-21T08:02:19;11.02;;;6.47;;
51190;SDS011;37253;48.736;9.294;2023-08-21T08:04:19;9.20;;;6.40;;
51190;SDS011;37253;48.736;9.294;2023-08-21T08:06:20;13.27;;;6.53;;
51190;SDS011;37253;48.736;9.294;2023-08-21T08:08:20;10.10;;;6.85;;
51190;SDS011;37253;48.736;9.294;2023-08-21T08:10:21;17.73;;;6.70;;
51190;SDS011;37253;48.736;9.294;2023-08-21T08:12:21;10.13;;;6.63;;
51190;SDS011;37253;48.736;9.294;2023-08-21T08:14:21;9.02;;;6.47;;
51190;SDS011;37253;48.736;9.294;2023-08-21T08:16:22;9.90;;;6.20;;
51190;SDS011;37253;48.736;9.294;2023-08-21T08:18:22;19.38;;;7.00;;
51190;SDS011;37253;48.736;9.294;2023-08-21T08:20:22;12.88;;;6.60;;
51190;SDS011;37253;48.736;9.294;2023-08-21T08:22:23;13.52;;;6.40;;
51190;SDS011;37253;48.736;9.294;2023-08-21T08:24:23;10.93;;;5.88;;
51190;SDS011;37253;48.736;9.294;2023-08-21T08:26:23;11.27;;;6.25;;
51190;SDS011;37253;48.736;9.294;2023-08-21T08:28:24;12.98;;;6.28;;
51190;SDS011;37253;48.736;9.294;2023-08-21T08:30:24;13.50;;;6.43;;
51190;SDS011;37253;48.736;9.294;2023-08-21T08:32:25;10.98;;;6.65;;
51190;SDS011;37253;48.736;9.294;2023-08-21T08:34:26;11.65;;;6.18;;
51190;SDS011;37253;48.736;9.294;2023-08-21T08:36:26;8.68;;;5.68;;
51190;SDS011;37253;48.736;9.294;2023-08-21T08:38:26;8.70;;;5.95;;
51190;SDS011;37253;48.736;9.294;2023-08-21T08:40:27;9.77;;;5.75;;
51190;SDS011;37253;48.736;9.294;2023-08-21T08:42:28;9.55;;;5.95;;
51190;SDS011;37253;48.736;9.294;2023-08-21T08:44:28;9.35;;;5.78;;
51190;SDS011;37253;48.736;9.294;2023-08-21T08:46:29;8.40;;;5.40;;
51190;SDS011;37253;48.736;9.294;2023-08-21T08:48:30;9.23;;;5.90;;
51190;SDS011;37253;48.736;9.294;2023-08-21T08:50:31;14.15;;;5.43;;
51190;SDS011;37253;48.736;9.294;2023-08-21T08:52:35;7.90;;;5.47;;
51190;SDS011;37253;48.736;9.294;2023-08-21T08:54:36;5.82;;;5.32;;
51190;SDS011;37253;48.736;9.294;2023-08-21T08:56:38;7.65;;;5.82;;
51190;SDS011;37253;48.736;9.294;2023-08-21T08:58:38;7.75;;;5.70;;
51190;SDS011;37253;48.736;9.294;2023-08-21T09:00:39;9.43;;;5.72;;
51190;SDS011;37253;48.736;9.294;2023-08-21T09:02:40;7.40;;;5.38;;
51190;SDS011;37253;48.736;9.294;2023-08-21T09:04:40;8.43;;;5.55;;
51190;SDS011;37253;48.736;9.294;2023-08-21T09:06:40;6.88;;;5.68;;
51190;SDS011;37253;48.736;9.294;2023-08-21T09:08:51;9.40;;;5.35;;
51190;SDS011;37253;48.736;9.294;2023-08-21T09:10:53;5.97;;;5.25;;
51190;SDS011;37253;48.736;9.294;2023-08-21T09:12:54;8.60;;;5.88;;
51190;SDS011;37253;48.736;9.294;2023-08-21T09:14:57;6.45;;;5.32;;
51190;SDS011;37253;48.736;9.294;2023-08-21T09:16:59;6.90;;;5.13;;
51190;SDS011;37253;48.736;9.294;2023-08-21T09:19:03;8.05;;;5.97;;
51190;SDS011;37253;48.736;9.294;2023-08-21T09:21:04;6.03;;;5.38;;
51190;SDS011;37253;48.736;9.294;2023-08-21T09:23:05;7.40;;;5.85;;
51190;SDS011;37253;48.736;9.294;2023-08-21T09:25:06;6.22;;;5.63;;
51190;SDS011;37253;48.736;9.294;2023-08-21T09:27:15;5.97;;;5.22;;
51190;SDS011;37253;48.736;9.294;2023-08-21T09:29:16;7.28;;;5.85;;
51190;SDS011;37253;48.736;9.294;2023-08-21T09:31:21;7.50;;;5.70;;
51190;SDS011;37253;48.736;9.294;2023-08-21T09:33:31;5.97;;;5.05;;
51190;SDS011;37253;48.736;9.294;2023-08-21T09:35:33;5.93;;;5.30;;
51190;SDS011;37253;48.736;9.294;2023-08-21T09:37:34;7.70;;;5.82;;
51190;SDS011;37253;48.736;9.294;2023-08-21T09:39:34;7.05;;;5.47;;
51190;SDS011;37253;48.736;9.294;2023-08-21T09:41:35;6.85;;;5.57;;
51190;SDS011;37253;48.736;9.294;2023-08-21T09:43:40;6.38;;;5.25;;
51190;SDS011;37253;48.736;9.294;2023-08-21T09:45:41;11.13;;;5.53;;
51190;SDS011;37253;48.736;9.294;2023-08-21T09:47:46;9.70;;;6.13;;
51190;SDS011;37253;48.736;9.294;2023-08-21T09:49:46;10.90;;;5.80;;
51190;SDS011;37253;48.736;9.294;2023-08-21T09:51:46;16.75;;;5.80;;
51190;SDS011;37253;48.736;9.294;2023-08-21T09:53:48;11.48;;;6.20;;
51190;SDS011;37253;48.736;9.294;2023-08-21T09:55:53;8.48;;;5.53;;
51190;SDS011;37253;48.736;9.294;2023-08-21T09:57:54;14.15;;;6.97;;
51190;SDS011;37253;48.736;9.294;2023-08-21T09:59:58;17.27;;;6.13;;
51190;SDS011;37253;48.736;9.294;2023-08-21T10:01:59;9.35;;;6.55;;
51190;SDS011;37253;48.736;9.294;2023-08-21T10:04:02;16.33;;;6.72;;
51190;SDS011;37253;48.736;9.294;2023-08-21T10:06:04;10.38;;;7.10;;
51190;SDS011;37253;48.736;9.294;2023-08-21T10:08:06;15.07;;;6.10;;
51190;SDS011;37253;48.736;9.294;2023-08-21T10:10:07;16.77;;;6.95;;
51190;SDS011;37253;48.736;9.294;2023-08-21T10:12:08;10.75;;;6.25;;
51190;SDS011;37253;48.736;9.294;2023-08-21T10:14:10;12.45;;;6.32;;
51190;SDS011;37253;48.736;9.294;2023-08-21T10:16:11;13.10;;;6.10;;
51190;SDS011;37253;48.736;9.294;2023-08-21T10:18:44;9.95;;;5.75;;
51190;SDS011;37253;48.736;9.294;2023-08-21T10:20:38;17.20;;;6.65;;
51190;SDS011;37253;48.736;9.294;2023-08-21T10:22:41;13.80;;;6.13;;
51190;SDS011;37253;48.736;9.294;2023-08-21T10:24:43;16.85;;;6.07;;
51190;SDS011;37253;48.736;9.294;2023-08-21T10:26:45;11.23;;;6.88;;
51190;SDS011;37253;48.736;9.294;2023-08-21T10:28:53;10.27;;;6.25;;
51190;SDS011;37253;48.736;9.294;2023-08-21T10:33:45;8.60;;;5.72;;
51190;SDS011;37253;48.736;9.294;2023-08-21T10:35:45;15.95;;;6.55;;
51190;SDS011;37253;48.736;9.294;2023-08-21T10:40:05;10.27;;;5.95;;
51190;SDS011;37253;48.736;9.294;2023-08-21T10:42:09;8.00;;;5.78;;
51190;SDS011;37253;48.736;9.294;2023-08-21T10:44:13;11.82;;;6.63;;
51190;SDS011;37253;48.736;9.294;2023-08-21T10:46:14;10.60;;;5.68;;
51190;SDS011;37253;48.736;9.294;2023-08-21T10:48:15;12.77;;;6.60;;
51190;SDS011;37253;48.736;9.294;2023-08-21T10:50:16;10.05;;;5.90;;
51190;SDS011;37253;48.736;9.294;2023-08-21T10:52:24;10.43;;;5.68;;
51190;SDS011;37253;48.736;9.294;2023-08-21T10:54:25;8.25;;;5.63;;
51190;SDS011;37253;48.736;9.294;2023-08-21T10:56:25;7.68;;;5.10;;
51190;SDS011;37253;48.736;9.294;2023-08-21T10:58:26;5.90;;;5.30;;
51190;SDS011;37253;48.736;9.294;2023-08-21T11:00:27;6.72;;;5.88;;
51190;SDS011;37253;48.736;9.294;2023-08-21T11:02:28;5.68;;;5.10;;
51190;SDS011;37253;48.736;9.294;2023-08-21T11:04:39;8.23;;;6.43;;
51190;SDS011;37253;48.736;9.294;2023-08-21T11:06:40;9.93;;;6.82;;
51190;SDS011;37253;48.736;9.294;2023-08-21T11:08:40;10.18;;;6.75;;
51190;SDS011;37253;48.736;9.294;2023-08-21T11:10:41;10.55;;;6.22;;
51190;SDS011;37253;48.736;9.294;2023-08-21T11:12:51;8.50;;;5.85;;
51190;SDS011;37253;48.736;9.294;2023-08-21T11:14:55;6.78;;;5.97;;
51190;SDS011;37253;48.736;9.294;2023-08-21T11:16:55;11.35;;;6.57;;
51190;SDS011;37253;48.736;9.294;2023-08-21T11:18:56;9.52;;;6.10;;
51190;SDS011;37253;48.736;9.294;2023-08-21T11:21:02;10.70;;;5.75;;
51190;SDS011;37253;48.736;9.294;2023-08-21T11:23:04;7.35;;;5.78;;
51190;SDS011;37253;48.736;9.294;2023-08-21T11:25:08;10.10;;;6.72;;
51190;SDS011;37253;48.736;9.294;2023-08-21T11:27:09;8.60;;;6.15;;
51190;SDS011;37253;48.736;9.294;2023-08-21T11:29:16;8.43;;;6.55;;
51190;SDS011;37253;48.736;9.294;2023-08-21T11:31:17;7.93;;;5.90;;
51190;SDS011;37253;48.736;9.294;2023-08-21T11:33:17;10.45;;;6.30;;
51190;SDS011;37253;48.736;9.294;2023-08-21T11:35:18;11.93;;;6.03;;
51190;SDS011;37253;48.736;9.294;2023-08-21T11:37:20;9.82;;;6.50;;
51190;SDS011;37253;48.736;9.294;2023-08-21T11:39:21;7.87;;;6.60;;
51190;SDS011;37253;48.736;9.294;2023-08-21T11:41:22;7.57;;;5.95;;
51190;SDS011;37253;48.736;9.294;2023-08-21T11:43:23;10.80;;;6.45;;
51190;SDS011;37253;48.736;9.294;2023-08-21T11:45:34;10.18;;;6.25;;
51190;SDS011;37253;48.736;9.294;2023-08-21T11:47:35;10.00;;;5.68;;
51190;SDS011;37253;48.736;9.294;2023-08-21T11:49:36;7.93;;;5.97;;
51190;SDS011;37253;48.736;9.294;2023-08-21T11:51:38;7.78;;;6.10;;
51190;SDS011;37253;48.736;9.294;2023-08-21T11:53:39;10.00;;;6.35;;
51190;SDS011;37253;48.736;9.294;2023-08-21T11:55:40;9.60;;;5.80;;
51190;SDS011;37253;48.736;9.294;2023-08-21T11:57:48;9.38;;;6.10;;
51190;SDS011;37253;48.736;9.294;2023-08-21T11:59:49;8.82;;;5.93;;
51190;SDS011;37253;48.736;9.294;2023-08-21T12:01:52;8.05;;;6.03;;
51190;SDS011;37253;48.736;9.294;2023-08-21T12:03:53;6.90;;;6.13;;
51190;SDS011;37253;48.736;9.294;2023-08-21T12:05:56;11.52;;;5.97;;
51190;SDS011;37253;48.736;9.294;2023-08-21T12:07:57;9.43;;;5.97;;
51190;SDS011;37253;48.736;9.294;2023-08-21T12:09:57;6.72;;;6.07;;
51190;SDS011;37253;48.736;9.294;2023-08-21T12:11:57;7.63;;;6.00;;
51190;SDS011;37253;48.736;9.294;2023-08-21T12:13:58;7.78;;;5.60;;
51190;SDS011;37253;48.736;9.294;2023-08-21T12:15:58;8.40;;;6.30;;
51190;SDS011;37253;48.736;9.294;2023-08-21T12:17:58;8.82;;;5.90;;